Roseland, Illinois
Current Conditions -  °F | °C
As of 2:53 AM on Friday 24 Oct 2014 (Local Time) from KMDW Reporting Station
Overcast Overcast  
Wind Chill: 13°   Ceiling: 2500
Heat Index: 13°   Visibility: 10mi
Dew Point:   Wind: 6mph
Humidity: 69%   Direction: 200°SSW
Pressure: 30.05"   Gusts: NA
Location:  41.6907°N, 87.6161°W
Report Text: KMDW 240753Z 20005KT 10SM OVC025 13/07 A3005 RMK AO2 SLP174 T01280072
Loading
Personal Weather Stations






























Interactive Weather Map
Tropical Storm Tracking
New forecast layout! Learn more

10-Day Weather Forecast

Advertisements
Track Severe Weather on mobile